sensor_id;sensor_type;location;lat;lon;timestamp;temperature;humidity
61392;DHT22;47261;52.892;5.738;2023-09-08T00:01:55;20.80;94.00
61392;DHT22;47261;52.892;5.738;2023-09-08T00:04:21;20.80;94.10
61392;DHT22;47261;52.892;5.738;2023-09-08T00:06:47;20.70;94.20
61392;DHT22;47261;52.892;5.738;2023-09-08T00:09:13;20.70;94.30
61392;DHT22;47261;52.892;5.738;2023-09-08T00:11:39;20.60;94.30
61392;DHT22;47261;52.892;5.738;2023-09-08T00:14:04;20.60;94.40
61392;DHT22;47261;52.892;5.738;2023-09-08T00:16:30;20.60;94.50
61392;DHT22;47261;52.892;5.738;2023-09-08T00:18:57;20.50;94.50
61392;DHT22;47261;52.892;5.738;2023-09-08T00:21:24;20.50;94.60
61392;DHT22;47261;52.892;5.738;2023-09-08T00:23:50;20.50;94.70
61392;DHT22;47261;52.892;5.738;2023-09-08T00:26:16;20.40;94.80
61392;DHT22;47261;52.892;5.738;2023-09-08T00:28:41;20.40;94.90
61392;DHT22;47261;52.892;5.738;2023-09-08T00:31:07;20.30;94.90
61392;DHT22;47261;52.892;5.738;2023-09-08T00:33:33;20.30;95.00
61392;DHT22;47261;52.892;5.738;2023-09-08T00:35:58;20.30;95.10
61392;DHT22;47261;52.892;5.738;2023-09-08T00:38:24;20.30;95.10
61392;DHT22;47261;52.892;5.738;2023-09-08T00:40:50;20.30;95.20
61392;DHT22;47261;52.892;5.738;2023-09-08T00:43:17;20.20;95.20
61392;DHT22;47261;52.892;5.738;2023-09-08T00:45:43;20.20;95.30
61392;DHT22;47261;52.892;5.738;2023-09-08T00:48:09;20.20;95.30
61392;DHT22;47261;52.892;5.738;2023-09-08T00:50:36;20.10;95.40
61392;DHT22;47261;52.892;5.738;2023-09-08T00:53:05;20.10;95.40
61392;DHT22;47261;52.892;5.738;2023-09-08T00:55:31;20.10;95.50
61392;DHT22;47261;52.892;5.738;2023-09-08T00:57:58;20.10;95.50
61392;DHT22;47261;52.892;5.738;2023-09-08T01:00:25;20.10;95.60
61392;DHT22;47261;52.892;5.738;2023-09-08T01:02:50;20.00;95.60
61392;DHT22;47261;52.892;5.738;2023-09-08T01:05:16;20.00;95.70
61392;DHT22;47261;52.892;5.738;2023-09-08T01:07:44;20.00;95.80
61392;DHT22;47261;52.892;5.738;2023-09-08T01:10:10;20.00;95.80
61392;DHT22;47261;52.892;5.738;2023-09-08T01:12:36;20.00;95.80
61392;DHT22;47261;52.892;5.738;2023-09-08T01:15:03;20.00;95.90
61392;DHT22;47261;52.892;5.738;2023-09-08T01:17:30;19.90;95.90
61392;DHT22;47261;52.892;5.738;2023-09-08T01:19:56;19.90;96.00
61392;DHT22;47261;52.892;5.738;2023-09-08T01:22:29;19.90;96.00
61392;DHT22;47261;52.892;5.738;2023-09-08T01:25:06;19.90;96.10
61392;DHT22;47261;52.892;5.738;2023-09-08T01:27:34;19.80;96.10
61392;DHT22;47261;52.892;5.738;2023-09-08T01:30:02;19.80;96.10
61392;DHT22;47261;52.892;5.738;2023-09-08T01:32:29;19.80;96.10
61392;DHT22;47261;52.892;5.738;2023-09-08T01:34:56;19.80;96.20
61392;DHT22;47261;52.892;5.738;2023-09-08T01:37:23;19.70;96.20
61392;DHT22;47261;52.892;5.738;2023-09-08T01:39:49;19.70;96.20
61392;DHT22;47261;52.892;5.738;2023-09-08T01:42:14;19.70;96.20
61392;DHT22;47261;52.892;5.738;2023-09-08T01:44:40;19.70;96.20
61392;DHT22;47261;52.892;5.738;2023-09-08T01:47:06;19.70;96.30
61392;DHT22;47261;52.892;5.738;2023-09-08T01:49:31;19.60;96.30
61392;DHT22;47261;52.892;5.738;2023-09-08T01:51:57;19.70;96.60
61392;DHT22;47261;52.892;5.738;2023-09-08T01:54:23;19.70;96.40
61392;DHT22;47261;52.892;5.738;2023-09-08T01:56:48;19.70;96.40
61392;DHT22;47261;52.892;5.738;2023-09-08T01:59:14;19.70;96.40
61392;DHT22;47261;52.892;5.738;2023-09-08T02:01:40;19.60;96.40
61392;DHT22;47261;52.892;5.738;2023-09-08T02:04:05;19.60;96.40
61392;DHT22;47261;52.892;5.738;2023-09-08T02:06:31;19.60;96.40
61392;DHT22;47261;52.892;5.738;2023-09-08T02:08:57;19.60;96.50
61392;DHT22;47261;52.892;5.738;2023-09-08T02:11:22;19.60;96.50
61392;DHT22;47261;52.892;5.738;2023-09-08T02:13:48;19.60;96.50
61392;DHT22;47261;52.892;5.738;2023-09-08T02:16:14;19.50;96.50
61392;DHT22;47261;52.892;5.738;2023-09-08T02:18:44;19.50;96.50
61392;DHT22;47261;52.892;5.738;2023-09-08T02:21:10;19.50;96.60
61392;DHT22;47261;52.892;5.738;2023-09-08T02:23:36;19.50;96.70
61392;DHT22;47261;52.892;5.738;2023-09-08T02:26:01;19.50;96.70
61392;DHT22;47261;52.892;5.738;2023-09-08T02:28:27;19.50;96.80
61392;DHT22;47261;52.892;5.738;2023-09-08T02:30:54;19.50;96.80
61392;DHT22;47261;52.892;5.738;2023-09-08T02:33:19;19.50;96.80
61392;DHT22;47261;52.892;5.738;2023-09-08T02:35:45;19.50;96.80
61392;DHT22;47261;52.892;5.738;2023-09-08T02:38:11;19.50;96.80
61392;DHT22;47261;52.892;5.738;2023-09-08T02:40:36;19.40;96.80
61392;DHT22;47261;52.892;5.738;2023-09-08T02:43:02;19.40;96.80
61392;DHT22;47261;52.892;5.738;2023-09-08T02:45:29;19.40;96.90
61392;DHT22;47261;52.892;5.738;2023-09-08T02:47:55;19.40;96.90
61392;DHT22;47261;52.892;5.738;2023-09-08T02:50:21;19.40;96.90
61392;DHT22;47261;52.892;5.738;2023-09-08T02:52:47;19.40;96.90
61392;DHT22;47261;52.892;5.738;2023-09-08T02:55:13;19.30;96.90
61392;DHT22;47261;52.892;5.738;2023-09-08T02:57:39;19.30;96.90
61392;DHT22;47261;52.892;5.738;2023-09-08T03:00:06;19.20;97.00
61392;DHT22;47261;52.892;5.738;2023-09-08T03:02:33;19.20;97.10
61392;DHT22;47261;52.892;5.738;2023-09-08T03:04:59;19.20;97.10
61392;DHT22;47261;52.892;5.738;2023-09-08T03:07:26;19.20;97.20
61392;DHT22;47261;52.892;5.738;2023-09-08T03:09:52;19.20;97.20
61392;DHT22;47261;52.892;5.738;2023-09-08T03:12:18;19.20;97.30
61392;DHT22;47261;52.892;5.738;2023-09-08T03:14:44;19.20;97.30
61392;DHT22;47261;52.892;5.738;2023-09-08T03:17:10;19.20;97.30
61392;DHT22;47261;52.892;5.738;2023-09-08T03:19:36;19.20;97.30
61392;DHT22;47261;52.892;5.738;2023-09-08T03:22:02;19.20;97.40
61392;DHT22;47261;52.892;5.738;2023-09-08T03:24:28;19.20;97.40
61392;DHT22;47261;52.892;5.738;2023-09-08T03:26:53;19.10;97.30
61392;DHT22;47261;52.892;5.738;2023-09-08T03:29:19;19.10;97.40
61392;DHT22;47261;52.892;5.738;2023-09-08T03:31:45;19.10;97.40
61392;DHT22;47261;52.892;5.738;2023-09-08T03:34:10;19.10;97.40
61392;DHT22;47261;52.892;5.738;2023-09-08T03:36:36;19.10;97.50
61392;DHT22;47261;52.892;5.738;2023-09-08T03:39:03;19.00;97.80
61392;DHT22;47261;52.892;5.738;2023-09-08T03:41:28;19.00;97.50
61392;DHT22;47261;52.892;5.738;2023-09-08T03:43:54;19.00;97.60
61392;DHT22;47261;52.892;5.738;2023-09-08T03:46:20;19.00;97.60
61392;DHT22;47261;52.892;5.738;2023-09-08T03:48:46;18.90;97.60
61392;DHT22;47261;52.892;5.738;2023-09-08T03:51:12;18.90;97.70
61392;DHT22;47261;52.892;5.738;2023-09-08T03:53:37;18.90;97.70
61392;DHT22;47261;52.892;5.738;2023-09-08T03:56:03;18.90;97.70
61392;DHT22;47261;52.892;5.738;2023-09-08T03:58:29;18.90;97.80
61392;DHT22;47261;52.892;5.738;2023-09-08T04:00:54;18.90;97.80
61392;DHT22;47261;52.892;5.738;2023-09-08T04:03:20;18.80;97.80
61392;DHT22;47261;52.892;5.738;2023-09-08T04:05:46;18.80;97.80
61392;DHT22;47261;52.892;5.738;2023-09-08T04:08:11;18.80;97.90
61392;DHT22;47261;52.892;5.738;2023-09-08T04:10:37;18.80;97.90
61392;DHT22;47261;52.892;5.738;2023-09-08T04:13:03;18.70;97.90
61392;DHT22;47261;52.892;5.738;2023-09-08T04:15:29;18.70;98.00
61392;DHT22;47261;52.892;5.738;2023-09-08T04:17:54;18.70;98.00
61392;DHT22;47261;52.892;5.738;2023-09-08T04:20:22;18.60;98.00
61392;DHT22;47261;52.892;5.738;2023-09-08T04:22:48;18.60;98.10
61392;DHT22;47261;52.892;5.738;2023-09-08T04:25:14;18.60;98.10
61392;DHT22;47261;52.892;5.738;2023-09-08T04:27:39;18.60;98.20
61392;DHT22;47261;52.892;5.738;2023-09-08T04:30:06;18.50;98.20
61392;DHT22;47261;52.892;5.738;2023-09-08T04:32:32;18.50;98.20
61392;DHT22;47261;52.892;5.738;2023-09-08T04:34:58;18.50;98.20
61392;DHT22;47261;52.892;5.738;2023-09-08T04:37:23;18.40;98.30
61392;DHT22;47261;52.892;5.738;2023-09-08T04:39:49;18.40;98.30
61392;DHT22;47261;52.892;5.738;2023-09-08T04:42:15;18.40;98.40
61392;DHT22;47261;52.892;5.738;2023-09-08T04:44:41;18.40;98.40
61392;DHT22;47261;52.892;5.738;2023-09-08T04:47:06;18.40;98.40
61392;DHT22;47261;52.892;5.738;2023-09-08T04:49:32;18.40;98.50
61392;DHT22;47261;52.892;5.738;2023-09-08T04:51:57;18.40;98.50
61392;DHT22;47261;52.892;5.738;2023-09-08T04:54:23;18.40;98.50
61392;DHT22;47261;52.892;5.738;2023-09-08T04:56:52;18.30;98.50
61392;DHT22;47261;52.892;5.738;2023-09-08T04:59:18;18.30;98.60
61392;DHT22;47261;52.892;5.738;2023-09-08T05:01:44;18.40;98.60
61392;DHT22;47261;52.892;5.738;2023-09-08T05:04:10;18.30;98.60
61392;DHT22;47261;52.892;5.738;2023-09-08T05:06:36;18.30;98.70
61392;DHT22;47261;52.892;5.738;2023-09-08T05:09:01;18.30;98.70
61392;DHT22;47261;52.892;5.738;2023-09-08T05:11:27;18.30;98.70
61392;DHT22;47261;52.892;5.738;2023-09-08T05:13:53;18.30;98.80
61392;DHT22;47261;52.892;5.738;2023-09-08T05:16:19;18.30;98.80
61392;DHT22;47261;52.892;5.738;2023-09-08T05:18:51;18.30;98.90
61392;DHT22;47261;52.892;5.738;2023-09-08T05:21:17;18.30;98.90
61392;DHT22;47261;52.892;5.738;2023-09-08T05:23:43;18.20;98.90
61392;DHT22;47261;52.892;5.738;2023-09-08T05:26:08;18.30;99.00
61392;DHT22;47261;52.892;5.738;2023-09-08T05:28:34;18.20;99.00
61392;DHT22;47261;52.892;5.738;2023-09-08T05:30:59;18.20;99.00
61392;DHT22;47261;52.892;5.738;2023-09-08T05:33:25;18.20;99.00
61392;DHT22;47261;52.892;5.738;2023-09-08T05:35:51;18.20;99.10
61392;DHT22;47261;52.892;5.738;2023-09-08T05:38:16;18.30;99.10
61392;DHT22;47261;52.892;5.738;2023-09-08T05:40:42;18.30;99.10
61392;DHT22;47261;52.892;5.738;2023-09-08T05:43:08;18.30;99.10
61392;DHT22;47261;52.892;5.738;2023-09-08T05:45:34;18.30;99.10
61392;DHT22;47261;52.892;5.738;2023-09-08T05:48:00;18.30;99.10
61392;DHT22;47261;52.892;5.738;2023-09-08T05:50:26;18.40;99.10
61392;DHT22;47261;52.892;5.738;2023-09-08T05:52:52;18.40;99.20
61392;DHT22;47261;52.892;5.738;2023-09-08T05:55:18;18.40;99.20
61392;DHT22;47261;52.892;5.738;2023-09-08T05:57:44;18.50;99.20
61392;DHT22;47261;52.892;5.738;2023-09-08T06:00:10;18.50;99.30
61392;DHT22;47261;52.892;5.738;2023-09-08T06:02:35;18.50;99.30
61392;DHT22;47261;52.892;5.738;2023-09-08T06:05:01;18.60;99.40
61392;DHT22;47261;52.892;5.738;2023-09-08T06:07:27;18.60;99.50
61392;DHT22;47261;52.892;5.738;2023-09-08T06:09:53;18.60;99.50
61392;DHT22;47261;52.892;5.738;2023-09-08T06:12:19;18.70;99.50
61392;DHT22;47261;52.892;5.738;2023-09-08T06:14:44;18.80;99.50
61392;DHT22;47261;52.892;5.738;2023-09-08T06:17:10;18.80;99.50
61392;DHT22;47261;52.892;5.738;2023-09-08T06:19:36;18.90;99.50
61392;DHT22;47261;52.892;5.738;2023-09-08T06:22:01;19.00;99.40
61392;DHT22;47261;52.892;5.738;2023-09-08T06:24:27;19.00;99.40
61392;DHT22;47261;52.892;5.738;2023-09-08T06:26:53;19.10;99.60
61392;DHT22;47261;52.892;5.738;2023-09-08T06:29:19;19.20;99.30
61392;DHT22;47261;52.892;5.738;2023-09-08T06:31:44;19.20;99.20
61392;DHT22;47261;52.892;5.738;2023-09-08T06:34:10;19.30;99.20
61392;DHT22;47261;52.892;5.738;2023-09-08T06:36:35;19.30;99.10
61392;DHT22;47261;52.892;5.738;2023-09-08T06:39:02;19.40;99.10
61392;DHT22;47261;52.892;5.738;2023-09-08T06:41:27;19.50;99.10
61392;DHT22;47261;52.892;5.738;2023-09-08T06:43:54;19.60;99.00
61392;DHT22;47261;52.892;5.738;2023-09-08T06:46:19;19.60;98.90
61392;DHT22;47261;52.892;5.738;2023-09-08T06:48:45;19.70;98.90
61392;DHT22;47261;52.892;5.738;2023-09-08T06:51:11;19.80;98.80
61392;DHT22;47261;52.892;5.738;2023-09-08T06:53:37;19.90;98.80
61392;DHT22;47261;52.892;5.738;2023-09-08T06:56:02;20.00;98.70
61392;DHT22;47261;52.892;5.738;2023-09-08T06:58:28;20.10;98.60
61392;DHT22;47261;52.892;5.738;2023-09-08T07:00:54;20.10;98.60
61392;DHT22;47261;52.892;5.738;2023-09-08T07:03:23;20.20;98.50
61392;DHT22;47261;52.892;5.738;2023-09-08T07:05:49;20.30;98.50
61392;DHT22;47261;52.892;5.738;2023-09-08T07:08:15;20.30;98.40
61392;DHT22;47261;52.892;5.738;2023-09-08T07:10:41;20.40;98.30
61392;DHT22;47261;52.892;5.738;2023-09-08T07:13:07;20.50;98.30
61392;DHT22;47261;52.892;5.738;2023-09-08T07:15:32;20.50;98.30
61392;DHT22;47261;52.892;5.738;2023-09-08T07:17:58;20.60;98.20
61392;DHT22;47261;52.892;5.738;2023-09-08T07:20:24;20.60;98.10
61392;DHT22;47261;52.892;5.738;2023-09-08T07:22:49;20.60;98.20
61392;DHT22;47261;52.892;5.738;2023-09-08T07:25:15;20.70;98.20
61392;DHT22;47261;52.892;5.738;2023-09-08T07:27:41;20.70;98.10
61392;DHT22;47261;52.892;5.738;2023-09-08T07:30:07;20.80;98.20
61392;DHT22;47261;52.892;5.738;2023-09-08T07:32:32;20.90;98.30
61392;DHT22;47261;52.892;5.738;2023-09-08T07:34:58;20.90;98.10
61392;DHT22;47261;52.892;5.738;2023-09-08T07:37:24;21.00;98.10
61392;DHT22;47261;52.892;5.738;2023-09-08T07:39:51;21.10;98.00
61392;DHT22;47261;52.892;5.738;2023-09-08T07:42:17;21.20;98.00
61392;DHT22;47261;52.892;5.738;2023-09-08T07:44:44;21.20;97.90
61392;DHT22;47261;52.892;5.738;2023-09-08T07:47:09;21.30;97.80
61392;DHT22;47261;52.892;5.738;2023-09-08T07:49:35;21.40;97.70
61392;DHT22;47261;52.892;5.738;2023-09-08T07:52:01;21.40;97.50
61392;DHT22;47261;52.892;5.738;2023-09-08T07:54:27;21.50;97.50
61392;DHT22;47261;52.892;5.738;2023-09-08T07:56:53;21.60;97.40
61392;DHT22;47261;52.892;5.738;2023-09-08T07:59:18;21.70;97.40
61392;DHT22;47261;52.892;5.738;2023-09-08T08:01:44;21.80;97.30
61392;DHT22;47261;52.892;5.738;2023-09-08T08:04:09;21.90;97.30
61392;DHT22;47261;52.892;5.738;2023-09-08T08:06:35;22.00;97.20
61392;DHT22;47261;52.892;5.738;2023-09-08T08:09:01;22.10;97.20
61392;DHT22;47261;52.892;5.738;2023-09-08T08:11:26;22.20;97.00
61392;DHT22;47261;52.892;5.738;2023-09-08T08:13:53;22.30;97.00
61392;DHT22;47261;52.892;5.738;2023-09-08T08:16:19;22.30;96.90
61392;DHT22;47261;52.892;5.738;2023-09-08T08:18:47;22.50;97.10
61392;DHT22;47261;52.892;5.738;2023-09-08T08:21:12;22.50;96.70
61392;DHT22;47261;52.892;5.738;2023-09-08T08:23:38;22.60;96.70
61392;DHT22;47261;52.892;5.738;2023-09-08T08:26:04;22.80;96.70
61392;DHT22;47261;52.892;5.738;2023-09-08T08:28:30;22.90;96.50
61392;DHT22;47261;52.892;5.738;2023-09-08T08:30:55;23.00;96.40
61392;DHT22;47261;52.892;5.738;2023-09-08T08:33:22;23.10;96.20
61392;DHT22;47261;52.892;5.738;2023-09-08T08:35:51;23.30;96.10
61392;DHT22;47261;52.892;5.738;2023-09-08T08:38:17;23.40;96.00
61392;DHT22;47261;52.892;5.738;2023-09-08T08:40:43;23.50;95.90
61392;DHT22;47261;52.892;5.738;2023-09-08T08:43:09;23.60;95.80
61392;DHT22;47261;52.892;5.738;2023-09-08T08:45:37;23.70;95.70
61392;DHT22;47261;52.892;5.738;2023-09-08T08:48:04;23.80;95.60
61392;DHT22;47261;52.892;5.738;2023-09-08T08:50:32;23.90;95.60
61392;DHT22;47261;52.892;5.738;2023-09-08T08:52:58;24.10;95.70
61392;DHT22;47261;52.892;5.738;2023-09-08T08:55:26;24.20;95.50
61392;DHT22;47261;52.892;5.738;2023-09-08T08:57:54;24.30;95.20
61392;DHT22;47261;52.892;5.738;2023-09-08T09:00:20;24.40;95.10
61392;DHT22;47261;52.892;5.738;2023-09-08T09:02:46;24.50;95.00
61392;DHT22;47261;52.892;5.738;2023-09-08T09:05:15;24.60;94.70
61392;DHT22;47261;52.892;5.738;2023-09-08T09:07:43;24.60;94.40
61392;DHT22;47261;52.892;5.738;2023-09-08T09:10:09;24.70;94.40
61392;DHT22;47261;52.892;5.738;2023-09-08T09:12:39;24.80;94.40
61392;DHT22;47261;52.892;5.738;2023-09-08T09:15:05;24.90;94.40
61392;DHT22;47261;52.892;5.738;2023-09-08T09:17:35;25.10;94.50
61392;DHT22;47261;52.892;5.738;2023-09-08T09:20:18;25.30;94.20
61392;DHT22;47261;52.892;5.738;2023-09-08T09:22:46;25.60;93.90
61392;DHT22;47261;52.892;5.738;2023-09-08T09:25:27;25.80;93.70
61392;DHT22;47261;52.892;5.738;2023-09-08T09:27:54;26.10;93.20
61392;DHT22;47261;52.892;5.738;2023-09-08T09:30:21;26.40;92.80
61392;DHT22;47261;52.892;5.738;2023-09-08T09:32:48;26.60;92.40
61392;DHT22;47261;52.892;5.738;2023-09-08T09:35:16;26.90;92.10
61392;DHT22;47261;52.892;5.738;2023-09-08T09:37:42;27.10;91.60
61392;DHT22;47261;52.892;5.738;2023-09-08T09:40:09;27.40;91.40
61392;DHT22;47261;52.892;5.738;2023-09-08T09:42:38;27.70;91.00
61392;DHT22;47261;52.892;5.738;2023-09-08T09:45:06;27.90;90.70
61392;DHT22;47261;52.892;5.738;2023-09-08T09:47:32;28.10;90.40
61392;DHT22;47261;52.892;5.738;2023-09-08T09:49:58;28.30;90.10
61392;DHT22;47261;52.892;5.738;2023-09-08T09:52:24;28.50;89.80
61392;DHT22;47261;52.892;5.738;2023-09-08T09:54:52;28.70;88.90
61392;DHT22;47261;52.892;5.738;2023-09-08T09:57:21;28.90;87.60
61392;DHT22;47261;52.892;5.738;2023-09-08T09:59:47;29.10;86.10
61392;DHT22;47261;52.892;5.738;2023-09-08T10:02:17;29.40;86.70
61392;DHT22;47261;52.892;5.738;2023-09-08T10:04:47;29.60;86.00
61392;DHT22;47261;52.892;5.738;2023-09-08T10:07:14;29.80;85.70
61392;DHT22;47261;52.892;5.738;2023-09-08T10:09:40;29.90;84.70
61392;DHT22;47261;52.892;5.738;2023-09-08T10:12:08;30.10;83.50
61392;DHT22;47261;52.892;5.738;2023-09-08T10:14:36;30.20;82.40
61392;DHT22;47261;52.892;5.738;2023-09-08T10:17:05;30.40;82.60
61392;DHT22;47261;52.892;5.738;2023-09-08T10:19:33;30.50;82.00
61392;DHT22;47261;52.892;5.738;2023-09-08T10:22:08;30.60;80.70
61392;DHT22;47261;52.892;5.738;2023-09-08T10:24:38;30.80;80.10
61392;DHT22;47261;52.892;5.738;2023-09-08T10:27:09;30.90;79.30
61392;DHT22;47261;52.892;5.738;2023-09-08T10:29:37;31.10;80.50
61392;DHT22;47261;52.892;5.738;2023-09-08T10:32:04;31.20;78.90
61392;DHT22;47261;52.892;5.738;2023-09-08T10:34:30;31.30;78.60
61392;DHT22;47261;52.892;5.738;2023-09-08T10:36:57;31.50;77.70
61392;DHT22;47261;52.892;5.738;2023-09-08T10:47:25;31.80;73.50
61392;DHT22;47261;52.892;5.738;2023-09-08T10:49:51;31.80;72.70
61392;DHT22;47261;52.892;5.738;2023-09-08T10:52:21;31.70;71.90
61392;DHT22;47261;52.892;5.738;2023-09-08T10:54:49;31.70;72.00
61392;DHT22;47261;52.892;5.738;2023-09-08T10:57:17;31.70;71.70
61392;DHT22;47261;52.892;5.738;2023-09-08T11:05:13;31.80;72.80
61392;DHT22;47261;52.892;5.738;2023-09-08T11:07:41;31.90;71.90
61392;DHT22;47261;52.892;5.738;2023-09-08T11:10:08;31.90;71.20
61392;DHT22;47261;52.892;5.738;2023-09-08T11:12:34;31.90;71.50
61392;DHT22;47261;52.892;5.738;2023-09-08T11:15:02;32.00;70.60
61392;DHT22;47261;52.892;5.738;2023-09-08T11:17:31;32.00;70.50
61392;DHT22;47261;52.892;5.738;2023-09-08T11:19:57;32.00;70.10
61392;DHT22;47261;52.892;5.738;2023-09-08T11:22:24;32.10;69.20
61392;DHT22;47261;52.892;5.738;2023-09-08T11:24:51;32.20;70.80
61392;DHT22;47261;52.892;5.738;2023-09-08T11:27:17;32.20;70.20
61392;DHT22;47261;52.892;5.738;2023-09-08T11:29:44;32.30;70.10
61392;DHT22;47261;52.892;5.738;2023-09-08T11:32:10;32.20;70.80
61392;DHT22;47261;52.892;5.738;2023-09-08T11:34:36;32.20;71.40
61392;DHT22;47261;52.892;5.738;2023-09-08T11:37:12;32.20;71.20
61392;DHT22;47261;52.892;5.738;2023-09-08T11:39:45;32.10;71.10
61392;DHT22;47261;52.892;5.738;2023-09-08T11:42:13;32.10;71.10
61392;DHT22;47261;52.892;5.738;2023-09-08T11:44:39;32.00;70.90
61392;DHT22;47261;52.892;5.738;2023-09-08T11:47:10;31.90;70.70
61392;DHT22;47261;52.892;5.738;2023-09-08T11:49:42;31.70;70.50
61392;DHT22;47261;52.892;5.738;2023-09-08T11:52:09;31.70;71.30
61392;DHT22;47261;52.892;5.738;2023-09-08T11:54:36;31.80;71.70
61392;DHT22;47261;52.892;5.738;2023-09-08T11:57:03;31.90;72.10
61392;DHT22;47261;52.892;5.738;2023-09-08T11:59:31;31.90;70.80
61392;DHT22;47261;52.892;5.738;2023-09-08T12:01:58;31.90;70.60
61392;DHT22;47261;52.892;5.738;2023-09-08T12:04:24;31.90;70.60
61392;DHT22;47261;52.892;5.738;2023-09-08T12:06:51;31.90;70.40
61392;DHT22;47261;52.892;5.738;2023-09-08T12:09:17;31.90;69.50
61392;DHT22;47261;52.892;5.738;2023-09-08T12:11:43;32.00;69.80
61392;DHT22;47261;52.892;5.738;2023-09-08T12:14:14;32.00;69.80
61392;DHT22;47261;52.892;5.738;2023-09-08T12:16:41;32.00;69.40
61392;DHT22;47261;52.892;5.738;2023-09-08T12:19:07;32.00;68.80
61392;DHT22;47261;52.892;5.738;2023-09-08T12:21:55;32.00;70.10
61392;DHT22;47261;52.892;5.738;2023-09-08T12:24:48;32.00;68.70
61392;DHT22;47261;52.892;5.738;2023-09-08T12:27:17;31.90;68.90
61392;DHT22;47261;52.892;5.738;2023-09-08T12:32:23;31.70;69.60
61392;DHT22;47261;52.892;5.738;2023-09-08T12:34:49;31.50;70.40
61392;DHT22;47261;52.892;5.738;2023-09-08T12:37:23;31.40;71.20
61392;DHT22;47261;52.892;5.738;2023-09-08T12:39:49;31.40;71.10
61392;DHT22;47261;52.892;5.738;2023-09-08T12:42:15;31.30;70.70
61392;DHT22;47261;52.892;5.738;2023-09-08T12:44:41;31.30;70.40
61392;DHT22;47261;52.892;5.738;2023-09-08T12:47:08;31.30;69.30
61392;DHT22;47261;52.892;5.738;2023-09-08T12:49:34;31.40;69.80
61392;DHT22;47261;52.892;5.738;2023-09-08T12:52:00;31.50;70.20
61392;DHT22;47261;52.892;5.738;2023-09-08T12:54:25;31.50;70.00
61392;DHT22;47261;52.892;5.738;2023-09-08T12:56:51;31.60;71.60
61392;DHT22;47261;52.892;5.738;2023-09-08T12:59:17;31.70;70.50
61392;DHT22;47261;52.892;5.738;2023-09-08T13:01:42;31.70;69.90
61392;DHT22;47261;52.892;5.738;2023-09-08T13:04:08;31.70;69.80
61392;DHT22;47261;52.892;5.738;2023-09-08T13:06:33;31.70;69.70
61392;DHT22;47261;52.892;5.738;2023-09-08T13:09:00;31.80;69.80
61392;DHT22;47261;52.892;5.738;2023-09-08T13:11:26;31.70;69.50
61392;DHT22;47261;52.892;5.738;2023-09-08T13:13:52;31.70;69.70
61392;DHT22;47261;52.892;5.738;2023-09-08T13:16:17;31.60;69.40
61392;DHT22;47261;52.892;5.738;2023-09-08T13:18:43;31.60;70.10
61392;DHT22;47261;52.892;5.738;2023-09-08T13:21:11;31.50;70.70
61392;DHT22;47261;52.892;5.738;2023-09-08T13:23:36;31.40;71.30
61392;DHT22;47261;52.892;5.738;2023-09-08T13:26:02;31.50;71.10
61392;DHT22;47261;52.892;5.738;2023-09-08T13:28:28;31.40;70.40
61392;DHT22;47261;52.892;5.738;2023-09-08T13:30:53;31.40;69.80
61392;DHT22;47261;52.892;5.738;2023-09-08T13:33:19;31.30;69.80
61392;DHT22;47261;52.892;5.738;2023-09-08T13:35:45;31.30;70.30
61392;DHT22;47261;52.892;5.738;2023-09-08T13:38:11;31.30;71.20
61392;DHT22;47261;52.892;5.738;2023-09-08T13:40:36;31.30;70.90
61392;DHT22;47261;52.892;5.738;2023-09-08T13:43:02;31.20;71.50
61392;DHT22;47261;52.892;5.738;2023-09-08T13:45:28;31.20;71.70
61392;DHT22;47261;52.892;5.738;2023-09-08T13:47:54;31.20;71.60
61392;DHT22;47261;52.892;5.738;2023-09-08T13:50:19;31.20;71.40
61392;DHT22;47261;52.892;5.738;2023-09-08T13:52:45;31.20;71.10
61392;DHT22;47261;52.892;5.738;2023-09-08T13:55:11;31.20;71.50
61392;DHT22;47261;52.892;5.738;2023-09-08T13:57:36;31.10;70.50
61392;DHT22;47261;52.892;5.738;2023-09-08T14:00:03;31.10;71.00
61392;DHT22;47261;52.892;5.738;2023-09-08T14:02:29;31.10;70.70
61392;DHT22;47261;52.892;5.738;2023-09-08T14:04:54;31.10;70.90
61392;DHT22;47261;52.892;5.738;2023-09-08T14:07:20;31.10;70.60
61392;DHT22;47261;52.892;5.738;2023-09-08T14:09:46;31.10;70.60
61392;DHT22;47261;52.892;5.738;2023-09-08T14:12:11;31.10;71.50
61392;DHT22;47261;52.892;5.738;2023-09-08T14:14:37;31.10;71.60
61392;DHT22;47261;52.892;5.738;2023-09-08T14:17:03;31.20;71.70
61392;DHT22;47261;52.892;5.738;2023-09-08T14:19:28;31.20;71.60
61392;DHT22;47261;52.892;5.738;2023-09-08T14:21:54;31.20;71.20
61392;DHT22;47261;52.892;5.738;2023-09-08T14:24:20;31.30;70.40
61392;DHT22;47261;52.892;5.738;2023-09-08T14:26:46;31.20;69.30
61392;DHT22;47261;52.892;5.738;2023-09-08T14:29:12;31.20;70.20
61392;DHT22;47261;52.892;5.738;2023-09-08T14:31:37;31.20;70.00
61392;DHT22;47261;52.892;5.738;2023-09-08T14:34:03;31.20;69.80
61392;DHT22;47261;52.892;5.738;2023-09-08T14:36:29;31.20;70.50
61392;DHT22;47261;52.892;5.738;2023-09-08T14:38:55;31.20;70.60
61392;DHT22;47261;52.892;5.738;2023-09-08T14:41:21;31.10;70.80
61392;DHT22;47261;52.892;5.738;2023-09-08T14:43:47;31.20;70.50
61392;DHT22;47261;52.892;5.738;2023-09-08T14:46:12;31.20;71.60
61392;DHT22;47261;52.892;5.738;2023-09-08T14:48:38;31.20;71.00
61392;DHT22;47261;52.892;5.738;2023-09-08T14:51:03;31.10;71.40
61392;DHT22;47261;52.892;5.738;2023-09-08T14:53:30;31.10;71.90
61392;DHT22;47261;52.892;5.738;2023-09-08T14:55:58;31.10;71.60
61392;DHT22;47261;52.892;5.738;2023-09-08T14:58:24;31.00;71.40
61392;DHT22;47261;52.892;5.738;2023-09-08T15:00:51;31.00;72.20
61392;DHT22;47261;52.892;5.738;2023-09-08T15:03:17;30.90;72.70
61392;DHT22;47261;52.892;5.738;2023-09-08T15:05:42;30.90;71.80
61392;DHT22;47261;52.892;5.738;2023-09-08T15:08:08;30.80;71.90
61392;DHT22;47261;52.892;5.738;2023-09-08T15:10:34;30.70;72.00
61392;DHT22;47261;52.892;5.738;2023-09-08T15:12:59;30.70;72.40
61392;DHT22;47261;52.892;5.738;2023-09-08T15:15:25;30.60;72.10
61392;DHT22;47261;52.892;5.738;2023-09-08T15:17:54;30.50;73.00
61392;DHT22;47261;52.892;5.738;2023-09-08T15:20:21;30.50;72.90
61392;DHT22;47261;52.892;5.738;2023-09-08T15:22:47;30.40;71.70
61392;DHT22;47261;52.892;5.738;2023-09-08T15:25:13;30.30;71.60
61392;DHT22;47261;52.892;5.738;2023-09-08T15:27:39;30.20;71.80
61392;DHT22;47261;52.892;5.738;2023-09-08T15:30:06;30.20;72.50
61392;DHT22;47261;52.892;5.738;2023-09-08T15:32:31;30.10;72.60
61392;DHT22;47261;52.892;5.738;2023-09-08T15:34:57;30.10;72.20
61392;DHT22;47261;52.892;5.738;2023-09-08T15:37:23;30.00;72.90
61392;DHT22;47261;52.892;5.738;2023-09-08T15:39:48;30.00;73.20
61392;DHT22;47261;52.892;5.738;2023-09-08T15:42:14;29.90;73.80